sensor_id;sensor_type;location;lat;lon;timestamp;pressure;altitude;pressure_sealevel;temperature;humidity
69780;BME280;57052;55.602;38.096;2023-01-30T00:00:14;99581.94;;;0.35;69.31
69780;BME280;57052;55.602;38.096;2023-01-30T00:02:39;99572.13;;;0.36;69.22
69780;BME280;57052;55.602;38.096;2023-01-30T00:05:05;99551.91;;;0.28;69.29
69780;BME280;57052;55.602;38.096;2023-01-30T00:07:31;99548.16;;;0.36;69.04
69780;BME280;57052;55.602;38.096;2023-01-30T00:09:56;99553.28;;;0.37;69.22
69780;BME280;57052;55.602;38.096;2023-01-30T00:12:22;99557.94;;;0.42;69.29
69780;BME280;57052;55.602;38.096;2023-01-30T00:14:48;99559.53;;;0.43;69.28
69780;BME280;57052;55.602;38.096;2023-01-30T00:17:14;99538.03;;;0.26;68.96
69780;BME280;57052;55.602;38.096;2023-01-30T00:19:39;99539.44;;;0.29;69.34
69780;BME280;57052;55.602;38.096;2023-01-30T00:22:05;99531.06;;;0.25;69.42
69780;BME280;57052;55.602;38.096;2023-01-30T00:24:30;99521.50;;;0.18;69.70
69780;BME280;57052;55.602;38.096;2023-01-30T00:26:56;99534.22;;;0.16;69.90
69780;BME280;57052;55.602;38.096;2023-01-30T00:29:22;99532.63;;;0.15;69.93
69780;BME280;57052;55.602;38.096;2023-01-30T00:31:48;99530.06;;;0.02;70.18
69780;BME280;57052;55.602;38.096;2023-01-30T00:34:13;99528.06;;;-0.03;70.06
69780;BME280;57052;55.602;38.096;2023-01-30T00:36:39;99539.22;;;0.06;70.24
69780;BME280;57052;55.602;38.096;2023-01-30T00:39:04;99529.84;;;0.03;70.43
69780;BME280;57052;55.602;38.096;2023-01-30T00:41:30;99523.28;;;0.06;70.26
69780;BME280;57052;55.602;38.096;2023-01-30T00:44:15;99503.19;;;0.10;70.03
69780;BME280;57052;55.602;38.096;2023-01-30T00:46:59;99508.50;;;0.10;70.30
69780;BME280;57052;55.602;38.096;2023-01-30T00:49:31;99513.22;;;0.08;70.13
69780;BME280;57052;55.602;38.096;2023-01-30T00:51:57;99499.31;;;0.06;70.51
69780;BME280;57052;55.602;38.096;2023-01-30T00:54:23;99499.16;;;0.00;70.02
69780;BME280;57052;55.602;38.096;2023-01-30T00:56:48;99498.44;;;-0.07;70.61
69780;BME280;57052;55.602;38.096;2023-01-30T00:59:14;99496.00;;;-0.08;70.40
69780;BME280;57052;55.602;38.096;2023-01-30T01:01:40;99478.75;;;-0.24;70.58
69780;BME280;57052;55.602;38.096;2023-01-30T01:04:05;99474.09;;;-0.28;70.70
69780;BME280;57052;55.602;38.096;2023-01-30T01:06:33;99482.38;;;-0.18;70.87
69780;BME280;57052;55.602;38.096;2023-01-30T01:08:59;99474.00;;;-0.22;70.82
69780;BME280;57052;55.602;38.096;2023-01-30T01:11:24;99470.34;;;-0.21;70.55
69780;BME280;57052;55.602;38.096;2023-01-30T01:13:52;99482.22;;;-0.23;71.33
69780;BME280;57052;55.602;38.096;2023-01-30T01:16:18;99464.19;;;-0.21;70.67
69780;BME280;57052;55.602;38.096;2023-01-30T01:18:44;99466.00;;;-0.15;71.15
69780;BME280;57052;55.602;38.096;2023-01-30T01:21:09;99464.34;;;-0.16;70.73
69780;BME280;57052;55.602;38.096;2023-01-30T01:23:35;99459.69;;;-0.21;70.89
69780;BME280;57052;55.602;38.096;2023-01-30T01:26:01;99456.59;;;-0.18;70.87
69780;BME280;57052;55.602;38.096;2023-01-30T01:28:27;99453.16;;;-0.25;71.02
69780;BME280;57052;55.602;38.096;2023-01-30T01:30:53;99447.53;;;-0.35;71.04
69780;BME280;57052;55.602;38.096;2023-01-30T01:33:19;99445.69;;;-0.34;71.38
69780;BME280;57052;55.602;38.096;2023-01-30T01:35:44;99451.41;;;-0.31;71.44
69780;BME280;57052;55.602;38.096;2023-01-30T01:38:12;99441.78;;;-0.32;71.01
69780;BME280;57052;55.602;38.096;2023-01-30T01:40:44;99431.75;;;-0.30;71.44
69780;BME280;57052;55.602;38.096;2023-01-30T01:43:36;99435.88;;;-0.34;71.46
69780;BME280;57052;55.602;38.096;2023-01-30T01:46:10;99428.66;;;-0.27;71.12
69780;BME280;57052;55.602;38.096;2023-01-30T01:48:52;99432.19;;;-0.33;71.56
69780;BME280;57052;55.602;38.096;2023-01-30T01:51:27;99422.00;;;-0.36;71.26
69780;BME280;57052;55.602;38.096;2023-01-30T01:54:01;99416.88;;;-0.37;71.39
69780;BME280;57052;55.602;38.096;2023-01-30T01:56:29;99414.69;;;-0.40;71.52
69780;BME280;57052;55.602;38.096;2023-01-30T01:59:00;99416.44;;;-0.34;71.71
69780;BME280;57052;55.602;38.096;2023-01-30T02:01:28;99396.28;;;-0.42;71.17
69780;BME280;57052;55.602;38.096;2023-01-30T02:03:57;99409.72;;;-0.37;71.26
69780;BME280;57052;55.602;38.096;2023-01-30T02:06:26;99377.16;;;-0.50;71.44
69780;BME280;57052;55.602;38.096;2023-01-30T02:08:55;99404.13;;;-0.29;71.06
69780;BME280;57052;55.602;38.096;2023-01-30T02:11:28;99402.66;;;-0.25;71.33
69780;BME280;57052;55.602;38.096;2023-01-30T02:13:55;99383.59;;;-0.22;70.66
69780;BME280;57052;55.602;38.096;2023-01-30T02:16:22;99372.97;;;-0.22;70.75
69780;BME280;57052;55.602;38.096;2023-01-30T02:18:48;99382.72;;;-0.16;70.62
69780;BME280;57052;55.602;38.096;2023-01-30T02:32:17;99376.19;;;-0.20;70.93
69780;BME280;57052;55.602;38.096;2023-01-30T02:45:34;99365.13;;;-0.17;70.66
69780;BME280;57052;55.602;38.096;2023-01-30T02:48:24;99360.19;;;-0.13;70.78
69780;BME280;57052;55.602;38.096;2023-01-30T02:50:59;99362.47;;;-0.17;71.04
69780;BME280;57052;55.602;38.096;2023-01-30T02:53:32;99358.56;;;-0.14;70.80
69780;BME280;57052;55.602;38.096;2023-01-30T02:55:59;99345.94;;;-0.19;70.61
69780;BME280;57052;55.602;38.096;2023-01-30T02:58:30;99314.16;;;-0.32;70.75
69780;BME280;57052;55.602;38.096;2023-01-30T03:06:44;99349.41;;;-0.18;70.93
69780;BME280;57052;55.602;38.096;2023-01-30T03:12:36;99335.59;;;-0.09;70.53
69780;BME280;57052;55.602;38.096;2023-01-30T03:17:55;99339.56;;;0.00;70.63
69780;BME280;57052;55.602;38.096;2023-01-30T03:20:21;99334.47;;;-0.01;70.47
69780;BME280;57052;55.602;38.096;2023-01-30T03:22:47;99307.22;;;-0.15;70.37
69780;BME280;57052;55.602;38.096;2023-01-30T03:25:17;99317.50;;;-0.18;70.79
69780;BME280;57052;55.602;38.096;2023-01-30T03:27:44;99301.09;;;-0.15;70.71
69780;BME280;57052;55.602;38.096;2023-01-30T03:30:11;99312.66;;;-0.10;70.68
69780;BME280;57052;55.602;38.096;2023-01-30T03:32:37;99306.47;;;-0.04;70.22
69780;BME280;57052;55.602;38.096;2023-01-30T03:35:02;99291.78;;;-0.06;70.46
69780;BME280;57052;55.602;38.096;2023-01-30T03:37:29;99299.06;;;-0.02;70.23
69780;BME280;57052;55.602;38.096;2023-01-30T03:39:54;99293.63;;;-0.07;70.52
69780;BME280;57052;55.602;38.096;2023-01-30T03:42:20;99288.28;;;-0.07;70.31
69780;BME280;57052;55.602;38.096;2023-01-30T03:44:46;99288.59;;;-0.15;70.63
69780;BME280;57052;55.602;38.096;2023-01-30T03:47:11;99275.91;;;-0.13;70.75
69780;BME280;57052;55.602;38.096;2023-01-30T03:49:37;99276.19;;;-0.03;70.46
69780;BME280;57052;55.602;38.096;2023-01-30T03:52:03;99264.50;;;-0.02;70.51
69780;BME280;57052;55.602;38.096;2023-01-30T03:54:28;99258.44;;;-0.09;70.83
69780;BME280;57052;55.602;38.096;2023-01-30T03:56:54;99257.28;;;-0.13;70.79
69780;BME280;57052;55.602;38.096;2023-01-30T03:59:20;99262.22;;;-0.16;70.72
69780;BME280;57052;55.602;38.096;2023-01-30T04:01:45;99240.00;;;-0.22;70.41
69780;BME280;57052;55.602;38.096;2023-01-30T04:04:11;99258.44;;;-0.09;70.67
69780;BME280;57052;55.602;38.096;2023-01-30T04:06:36;99248.06;;;-0.10;70.65
69780;BME280;57052;55.602;38.096;2023-01-30T04:09:02;99257.19;;;-0.06;70.17
69780;BME280;57052;55.602;38.096;2023-01-30T04:11:28;99224.03;;;-0.22;70.76
69780;BME280;57052;55.602;38.096;2023-01-30T04:13:53;99248.56;;;-0.20;70.83
69780;BME280;57052;55.602;38.096;2023-01-30T04:16:22;99240.69;;;-0.26;70.68
69780;BME280;57052;55.602;38.096;2023-01-30T04:18:48;99235.13;;;-0.25;70.87
69780;BME280;57052;55.602;38.096;2023-01-30T04:21:14;99228.88;;;-0.30;71.18
69780;BME280;57052;55.602;38.096;2023-01-30T04:23:40;99226.22;;;-0.30;70.98
69780;BME280;57052;55.602;38.096;2023-01-30T04:26:06;99227.91;;;-0.36;71.34
69780;BME280;57052;55.602;38.096;2023-01-30T04:28:32;99228.13;;;-0.37;71.62
69780;BME280;57052;55.602;38.096;2023-01-30T04:30:58;99220.81;;;-0.42;71.54
69780;BME280;57052;55.602;38.096;2023-01-30T04:33:24;99208.50;;;-0.36;71.14
69780;BME280;57052;55.602;38.096;2023-01-30T04:35:59;99211.97;;;-0.36;71.17
69780;BME280;57052;55.602;38.096;2023-01-30T04:38:26;99209.75;;;-0.39;71.18
69780;BME280;57052;55.602;38.096;2023-01-30T04:40:54;99209.59;;;-0.44;71.26
69780;BME280;57052;55.602;38.096;2023-01-30T04:43:20;99213.66;;;-0.41;71.58
69780;BME280;57052;55.602;38.096;2023-01-30T04:45:47;99204.59;;;-0.52;71.44
69780;BME280;57052;55.602;38.096;2023-01-30T04:48:13;99223.91;;;-0.45;71.17
69780;BME280;57052;55.602;38.096;2023-01-30T04:50:40;99222.31;;;-0.46;71.03
69780;BME280;57052;55.602;38.096;2023-01-30T04:53:06;99173.81;;;-0.78;71.23
69780;BME280;57052;55.602;38.096;2023-01-30T04:55:33;99210.44;;;-0.43;71.21
69780;BME280;57052;55.602;38.096;2023-01-30T04:57:58;99198.41;;;-0.46;71.54
69780;BME280;57052;55.602;38.096;2023-01-30T05:00:24;99206.09;;;-0.56;71.71
69780;BME280;57052;55.602;38.096;2023-01-30T05:02:51;99202.75;;;-0.51;71.33
69780;BME280;57052;55.602;38.096;2023-01-30T05:05:16;99191.94;;;-0.68;71.48
69780;BME280;57052;55.602;38.096;2023-01-30T05:07:42;99178.69;;;-0.75;71.76
69780;BME280;57052;55.602;38.096;2023-01-30T05:10:08;99185.69;;;-0.62;71.75
69780;BME280;57052;55.602;38.096;2023-01-30T05:12:34;99172.41;;;-0.62;71.37
69780;BME280;57052;55.602;38.096;2023-01-30T05:15:00;99171.94;;;-0.71;71.94
69780;BME280;57052;55.602;38.096;2023-01-30T05:17:25;99165.50;;;-0.63;71.23
69780;BME280;57052;55.602;38.096;2023-01-30T05:19:51;99158.09;;;-0.61;71.57
69780;BME280;57052;55.602;38.096;2023-01-30T05:22:17;99162.38;;;-0.60;71.75
69780;BME280;57052;55.602;38.096;2023-01-30T05:24:43;99163.13;;;-0.53;71.69
69780;BME280;57052;55.602;38.096;2023-01-30T05:27:09;99150.34;;;-0.63;71.44
69780;BME280;57052;55.602;38.096;2023-01-30T05:29:35;99157.34;;;-0.50;71.34
69780;BME280;57052;55.602;38.096;2023-01-30T05:32:02;99143.47;;;-0.52;71.71
69780;BME280;57052;55.602;38.096;2023-01-30T05:34:28;99153.88;;;-0.50;71.43
69780;BME280;57052;55.602;38.096;2023-01-30T05:36:53;99148.72;;;-0.45;71.08
69780;BME280;57052;55.602;38.096;2023-01-30T05:39:19;99140.94;;;-0.47;70.84
69780;BME280;57052;55.602;38.096;2023-01-30T05:41:45;99137.41;;;-0.41;71.28
69780;BME280;57052;55.602;38.096;2023-01-30T05:44:10;99133.09;;;-0.42;71.03
69780;BME280;57052;55.602;38.096;2023-01-30T05:46:36;99126.19;;;-0.43;71.02
69780;BME280;57052;55.602;38.096;2023-01-30T05:49:01;99086.00;;;-0.65;70.95
69780;BME280;57052;55.602;38.096;2023-01-30T05:51:29;99117.16;;;-0.42;71.05
69780;BME280;57052;55.602;38.096;2023-01-30T05:53:55;99109.91;;;-0.35;70.86
69780;BME280;57052;55.602;38.096;2023-01-30T05:56:21;99107.72;;;-0.38;70.81
69780;BME280;57052;55.602;38.096;2023-01-30T05:58:52;99103.31;;;-0.32;70.49
69780;BME280;57052;55.602;38.096;2023-01-30T06:01:18;99101.78;;;-0.40;70.48
69780;BME280;57052;55.602;38.096;2023-01-30T06:03:44;99112.09;;;-0.32;70.71
69780;BME280;57052;55.602;38.096;2023-01-30T06:06:10;99091.91;;;-0.33;71.21
69780;BME280;57052;55.602;38.096;2023-01-30T06:08:37;99079.50;;;-0.39;70.32
69780;BME280;57052;55.602;38.096;2023-01-30T06:11:08;99094.19;;;-0.36;70.62
69780;BME280;57052;55.602;38.096;2023-01-30T06:13:35;99089.69;;;-0.36;70.76
69780;BME280;57052;55.602;38.096;2023-01-30T06:16:00;99097.06;;;-0.38;70.36
69780;BME280;57052;55.602;38.096;2023-01-30T06:18:26;99083.19;;;-0.40;70.16
69780;BME280;57052;55.602;38.096;2023-01-30T06:20:52;99092.91;;;-0.34;70.31
69780;BME280;57052;55.602;38.096;2023-01-30T06:23:19;99077.53;;;-0.43;70.69
69780;BME280;57052;55.602;38.096;2023-01-30T06:25:46;99066.06;;;-0.44;70.51
69780;BME280;57052;55.602;38.096;2023-01-30T06:28:12;99084.94;;;-0.34;70.22
69780;BME280;57052;55.602;38.096;2023-01-30T06:30:38;99078.13;;;-0.30;70.10
69780;BME280;57052;55.602;38.096;2023-01-30T06:33:04;99077.78;;;-0.33;70.01
69780;BME280;57052;55.602;38.096;2023-01-30T06:35:29;99057.38;;;-0.51;70.11
69780;BME280;57052;55.602;38.096;2023-01-30T06:37:55;99055.56;;;-0.50;70.33
69780;BME280;57052;55.602;38.096;2023-01-30T06:40:21;99072.53;;;-0.40;70.53
69780;BME280;57052;55.602;38.096;2023-01-30T06:42:47;99089.94;;;-0.26;70.36
69780;BME280;57052;55.602;38.096;2023-01-30T06:45:15;99080.13;;;-0.25;70.15
69780;BME280;57052;55.602;38.096;2023-01-30T06:47:49;99083.22;;;-0.28;70.22
69780;BME280;57052;55.602;38.096;2023-01-30T06:50:16;99085.06;;;-0.29;70.33
69780;BME280;57052;55.602;38.096;2023-01-30T06:52:47;99078.97;;;-0.18;70.09
69780;BME280;57052;55.602;38.096;2023-01-30T06:55:15;99075.84;;;-0.26;69.87
69780;BME280;57052;55.602;38.096;2023-01-30T06:57:42;99074.19;;;-0.39;70.65
69780;BME280;57052;55.602;38.096;2023-01-30T07:00:19;99078.91;;;-0.41;70.58
69780;BME280;57052;55.602;38.096;2023-01-30T07:02:45;99072.09;;;-0.37;70.35
69780;BME280;57052;55.602;38.096;2023-01-30T07:05:12;99072.00;;;-0.30;70.44
69780;BME280;57052;55.602;38.096;2023-01-30T07:07:37;99061.47;;;-0.37;69.93
69780;BME280;57052;55.602;38.096;2023-01-30T07:10:05;99073.06;;;-0.20;69.79
69780;BME280;57052;55.602;38.096;2023-01-30T07:12:31;99057.47;;;-0.28;70.17
69780;BME280;57052;55.602;38.096;2023-01-30T07:14:57;99061.97;;;-0.28;70.08
69780;BME280;57052;55.602;38.096;2023-01-30T07:17:22;99056.06;;;-0.19;69.62
69780;BME280;57052;55.602;38.096;2023-01-30T07:19:48;99061.72;;;-0.27;69.97
69780;BME280;57052;55.602;38.096;2023-01-30T07:22:14;99056.31;;;-0.20;70.10
69780;BME280;57052;55.602;38.096;2023-01-30T07:24:40;99044.94;;;-0.27;70.00
69780;BME280;57052;55.602;38.096;2023-01-30T07:27:11;99056.31;;;-0.20;70.14
69780;BME280;57052;55.602;38.096;2023-01-30T07:29:38;99058.47;;;-0.29;70.33
69780;BME280;57052;55.602;38.096;2023-01-30T07:32:05;99048.66;;;-0.28;70.36
69780;BME280;57052;55.602;38.096;2023-01-30T07:34:32;99051.53;;;-0.30;70.39
69780;BME280;57052;55.602;38.096;2023-01-30T07:36:57;99051.91;;;-0.26;70.24
69780;BME280;57052;55.602;38.096;2023-01-30T07:39:23;99045.19;;;-0.29;70.44
69780;BME280;57052;55.602;38.096;2023-01-30T07:41:49;99047.53;;;-0.21;70.01
69780;BME280;57052;55.602;38.096;2023-01-30T07:44:14;99042.66;;;-0.24;70.45
69780;BME280;57052;55.602;38.096;2023-01-30T07:46:40;99035.03;;;-0.20;70.28
69780;BME280;57052;55.602;38.096;2023-01-30T07:49:06;99044.88;;;-0.21;70.58
69780;BME280;57052;55.602;38.096;2023-01-30T07:51:33;99034.56;;;-0.17;70.21
69780;BME280;57052;55.602;38.096;2023-01-30T07:53:59;99029.72;;;-0.20;70.26
69780;BME280;57052;55.602;38.096;2023-01-30T07:56:26;99021.25;;;-0.17;70.19
69780;BME280;57052;55.602;38.096;2023-01-30T07:58:53;99018.16;;;-0.14;70.39
69780;BME280;57052;55.602;38.096;2023-01-30T08:01:19;99020.94;;;-0.21;70.57
69780;BME280;57052;55.602;38.096;2023-01-30T08:03:45;99018.28;;;-0.09;70.19
69780;BME280;57052;55.602;38.096;2023-01-30T08:06:11;98984.16;;;-0.35;70.48
69780;BME280;57052;55.602;38.096;2023-01-30T08:08:38;99001.38;;;-0.26;70.55
69780;BME280;57052;55.602;38.096;2023-01-30T08:11:04;99015.03;;;-0.23;70.85
69780;BME280;57052;55.602;38.096;2023-01-30T08:13:30;98996.31;;;-0.28;70.74
69780;BME280;57052;55.602;38.096;2023-01-30T08:16:02;99000.94;;;-0.12;70.67
69780;BME280;57052;55.602;38.096;2023-01-30T08:18:29;99004.06;;;-0.03;70.21
69780;BME280;57052;55.602;38.096;2023-01-30T08:20:59;99004.41;;;0.00;70.49
69780;BME280;57052;55.602;38.096;2023-01-30T08:23:25;98992.03;;;0.06;70.46
69780;BME280;57052;55.602;38.096;2023-01-30T08:25:58;98982.06;;;0.13;69.83
69780;BME280;57052;55.602;38.096;2023-01-30T08:28:24;98989.94;;;0.08;70.38
69780;BME280;57052;55.602;38.096;2023-01-30T08:30:50;98997.09;;;0.08;70.26
69780;BME280;57052;55.602;38.096;2023-01-30T08:33:20;98984.88;;;0.07;70.70
69780;BME280;57052;55.602;38.096;2023-01-30T08:35:46;98979.19;;;0.15;69.97
69780;BME280;57052;55.602;38.096;2023-01-30T08:38:12;98976.66;;;0.20;70.27
69780;BME280;57052;55.602;38.096;2023-01-30T08:40:38;98958.16;;;0.02;70.46
69780;BME280;57052;55.602;38.096;2023-01-30T08:43:04;98966.22;;;0.18;69.81
69780;BME280;57052;55.602;38.096;2023-01-30T08:45:30;98958.94;;;0.14;70.49
69780;BME280;57052;55.602;38.096;2023-01-30T08:48:03;98954.19;;;0.16;70.10
69780;BME280;57052;55.602;38.096;2023-01-30T08:50:32;98949.31;;;0.13;70.34
69780;BME280;57052;55.602;38.096;2023-01-30T08:53:03;98960.19;;;0.23;69.95
69780;BME280;57052;55.602;38.096;2023-01-30T08:55:29;98936.72;;;0.08;69.92
69780;BME280;57052;55.602;38.096;2023-01-30T08:57:55;98948.28;;;0.25;70.13
69780;BME280;57052;55.602;38.096;2023-01-30T09:00:21;98944.81;;;0.25;70.12
69780;BME280;57052;55.602;38.096;2023-01-30T09:02:47;98928.66;;;0.15;70.24
69780;BME280;57052;55.602;38.096;2023-01-30T09:05:12;98933.59;;;0.23;70.57
69780;BME280;57052;55.602;38.096;2023-01-30T09:07:38;98936.03;;;0.24;69.79
69780;BME280;57052;55.602;38.096;2023-01-30T09:10:04;98920.38;;;0.28;69.94
69780;BME280;57052;55.602;38.096;2023-01-30T09:12:30;98914.75;;;0.24;70.09
69780;BME280;57052;55.602;38.096;2023-01-30T09:14:55;98919.19;;;0.35;69.67
69780;BME280;57052;55.602;38.096;2023-01-30T09:17:23;98923.75;;;0.35;69.79
69780;BME280;57052;55.602;38.096;2023-01-30T09:19:49;98916.22;;;0.32;69.43
69780;BME280;57052;55.602;38.096;2023-01-30T09:22:15;98922.34;;;0.32;70.21
69780;BME280;57052;55.602;38.096;2023-01-30T09:24:41;98914.38;;;0.32;70.17
69780;BME280;57052;55.602;38.096;2023-01-30T09:27:07;98900.25;;;0.32;69.80
69780;BME280;57052;55.602;38.096;2023-01-30T09:29:32;98897.34;;;0.33;69.81
69780;BME280;57052;55.602;38.096;2023-01-30T09:31:58;98898.50;;;0.37;69.94
69780;BME280;57052;55.602;38.096;2023-01-30T09:34:25;98882.47;;;0.21;70.29
69780;BME280;57052;55.602;38.096;2023-01-30T09:36:56;98879.44;;;0.29;69.92
69780;BME280;57052;55.602;38.096;2023-01-30T09:39:24;98883.81;;;0.35;70.37
69780;BME280;57052;55.602;38.096;2023-01-30T09:44:59;98875.16;;;0.28;70.41
69780;BME280;57052;55.602;38.096;2023-01-30T09:51:02;98862.91;;;0.27;70.61
69780;BME280;57052;55.602;38.096;2023-01-30T09:55:39;98848.06;;;0.31;70.36
69780;BME280;57052;55.602;38.096;2023-01-30T09:58:22;98844.22;;;0.38;70.13
69780;BME280;57052;55.602;38.096;2023-01-30T10:00:52;98852.03;;;0.56;70.13
69780;BME280;57052;55.602;38.096;2023-01-30T10:03:41;98845.78;;;0.51;70.63
69780;BME280;57052;55.602;38.096;2023-01-30T10:06:14;98834.28;;;0.62;70.20
69780;BME280;57052;55.602;38.096;2023-01-30T10:16:58;98810.31;;;0.62;69.94
69780;BME280;57052;55.602;38.096;2023-01-30T10:27:21;98799.50;;;0.52;69.94
69780;BME280;57052;55.602;38.096;2023-01-30T10:29:53;98799.81;;;0.55;70.17
69780;BME280;57052;55.602;38.096;2023-01-30T10:32:43;98806.69;;;0.68;69.76
69780;BME280;57052;55.602;38.096;2023-01-30T10:35:22;98792.91;;;0.71;69.51
69780;BME280;57052;55.602;38.096;2023-01-30T10:40:38;98785.97;;;0.70;69.40
69780;BME280;57052;55.602;38.096;2023-01-30T10:43:33;98784.66;;;0.56;69.63
69780;BME280;57052;55.602;38.096;2023-01-30T10:46:31;98787.97;;;0.63;69.48
69780;BME280;57052;55.602;38.096;2023-01-30T10:49:14;98771.91;;;0.58;69.93
69780;BME280;57052;55.602;38.096;2023-01-30T10:57:00;98768.53;;;0.62;70.08
69780;BME280;57052;55.602;38.096;2023-01-30T11:02:25;98768.28;;;0.64;69.83
69780;BME280;57052;55.602;38.096;2023-01-30T11:05:01;98765.97;;;0.68;69.48
69780;BME280;57052;55.602;38.096;2023-01-30T11:07:31;98753.50;;;0.73;69.67
69780;BME280;57052;55.602;38.096;2023-01-30T11:09:58;98747.31;;;0.68;70.59
69780;BME280;57052;55.602;38.096;2023-01-30T11:12:24;98742.88;;;0.73;70.17
69780;BME280;57052;55.602;38.096;2023-01-30T11:17:20;98739.13;;;0.91;69.89
69780;BME280;57052;55.602;38.096;2023-01-30T11:19:53;98741.75;;;0.69;71.77
69780;BME280;57052;55.602;38.096;2023-01-30T11:22:19;98738.03;;;0.70;70.96
69780;BME280;57052;55.602;38.096;2023-01-30T11:24:45;98732.13;;;0.68;71.12
69780;BME280;57052;55.602;38.096;2023-01-30T11:27:24;98736.91;;;0.66;72.08
69780;BME280;57052;55.602;38.096;2023-01-30T11:30:08;98744.66;;;0.68;72.44
69780;BME280;57052;55.602;38.096;2023-01-30T11:32:36;98732.84;;;0.63;72.01
69780;BME280;57052;55.602;38.096;2023-01-30T11:40:09;98728.19;;;0.87;72.33
69780;BME280;57052;55.602;38.096;2023-01-30T11:42:46;98720.13;;;0.82;72.30
69780;BME280;57052;55.602;38.096;2023-01-30T11:45:14;98714.88;;;0.87;71.69
69780;BME280;57052;55.602;38.096;2023-01-30T11:47:56;98698.09;;;0.70;73.12
69780;BME280;57052;55.602;38.096;2023-01-30T11:50:27;98708.31;;;0.78;72.20
69780;BME280;57052;55.602;38.096;2023-01-30T11:52:53;98713.72;;;0.83;71.98
69780;BME280;57052;55.602;38.096;2023-01-30T11:55:20;98703.69;;;0.90;72.55
69780;BME280;57052;55.602;38.096;2023-01-30T11:57:51;98704.69;;;0.84;72.37
69780;BME280;57052;55.602;38.096;2023-01-30T12:00:22;98709.28;;;0.89;72.21
69780;BME280;57052;55.602;38.096;2023-01-30T12:02:51;98699.94;;;0.86;72.24
69780;BME280;57052;55.602;38.096;2023-01-30T12:07:52;98697.91;;;0.93;72.05
69780;BME280;57052;55.602;38.096;2023-01-30T12:10:40;98689.09;;;0.93;72.25
69780;BME280;57052;55.602;38.096;2023-01-30T12:15:49;98687.38;;;1.03;71.90
69780;BME280;57052;55.602;38.096;2023-01-30T12:18:36;98683.47;;;0.89;72.13
69780;BME280;57052;55.602;38.096;2023-01-30T12:21:24;98682.38;;;0.90;72.12
69780;BME280;57052;55.602;38.096;2023-01-30T12:24:04;98682.97;;;0.92;72.13
69780;BME280;57052;55.602;38.096;2023-01-30T12:26:46;98661.03;;;0.85;72.76
69780;BME280;57052;55.602;38.096;2023-01-30T12:32:15;98676.25;;;1.06;71.98
69780;BME280;57052;55.602;38.096;2023-01-30T12:34:44;98674.88;;;1.04;71.47
69780;BME280;57052;55.602;38.096;2023-01-30T12:37:35;98662.91;;;1.06;71.54
69780;BME280;57052;55.602;38.096;2023-01-30T12:45:52;98658.34;;;1.02;71.28
69780;BME280;57052;55.602;38.096;2023-01-30T12:48:50;98651.63;;;0.99;71.54
69780;BME280;57052;55.602;38.096;2023-01-30T13:19:15;98624.00;;;1.05;70.94
69780;BME280;57052;55.602;38.096;2023-01-30T13:21:47;98619.59;;;0.94;71.13
69780;BME280;57052;55.602;38.096;2023-01-30T13:27:14;98618.66;;;1.05;71.28
69780;BME280;57052;55.602;38.096;2023-01-30T13:29:41;98620.91;;;1.13;71.06
69780;BME280;57052;55.602;38.096;2023-01-30T13:34:43;98606.41;;;1.04;71.71
69780;BME280;57052;55.602;38.096;2023-01-30T13:37:13;98602.75;;;1.10;71.00
69780;BME280;57052;55.602;38.096;2023-01-30T13:39:58;98610.69;;;1.05;71.38
69780;BME280;57052;55.602;38.096;2023-01-30T13:45:15;98613.78;;;1.19;70.38
69780;BME280;57052;55.602;38.096;2023-01-30T13:56:05;98597.09;;;1.28;70.32
69780;BME280;57052;55.602;38.096;2023-01-30T14:01:09;98591.78;;;1.28;70.02
69780;BME280;57052;55.602;38.096;2023-01-30T14:03:37;98549.44;;;1.10;70.25
69780;BME280;57052;55.602;38.096;2023-01-30T14:06:07;98594.00;;;1.37;70.14
69780;BME280;57052;55.602;38.096;2023-01-30T14:08:49;98587.63;;;1.38;69.68
69780;BME280;57052;55.602;38.096;2023-01-30T14:11:38;98581.38;;;1.27;69.87
69780;BME280;57052;55.602;38.096;2023-01-30T14:14:28;98585.09;;;1.26;70.11
69780;BME280;57052;55.602;38.096;2023-01-30T14:16:57;98587.25;;;1.29;69.97
69780;BME280;57052;55.602;38.096;2023-01-30T14:22:01;98571.00;;;1.30;70.02
69780;BME280;57052;55.602;38.096;2023-01-30T14:24:27;98577.94;;;1.32;69.63
69780;BME280;57052;55.602;38.096;2023-01-30T14:27:01;98573.16;;;1.34;69.90
69780;BME280;57052;55.602;38.096;2023-01-30T14:34:39;98575.13;;;1.43;69.90
69780;BME280;57052;55.602;38.096;2023-01-30T14:40:09;98562.28;;;1.35;69.41
69780;BME280;57052;55.602;38.096;2023-01-30T14:45:50;98583.84;;;1.34;69.72
69780;BME280;57052;55.602;38.096;2023-01-30T14:48:37;98576.66;;;1.34;69.12
69780;BME280;57052;55.602;38.096;2023-01-30T14:57:01;98566.34;;;1.43;68.73
69780;BME280;57052;55.602;38.096;2023-01-30T15:05:14;98565.66;;;1.52;68.46
69780;BME280;57052;55.602;38.096;2023-01-30T15:07:49;98571.25;;;1.56;68.91
69780;BME280;57052;55.602;38.096;2023-01-30T15:10:26;98559.28;;;1.58;68.72
69780;BME280;57052;55.602;38.096;2023-01-30T15:18:53;98556.34;;;1.55;67.39
69780;BME280;57052;55.602;38.096;2023-01-30T15:26:56;98560.09;;;1.59;67.47
69780;BME280;57052;55.602;38.096;2023-01-30T15:29:49;98554.88;;;1.69;67.56
69780;BME280;57052;55.602;38.096;2023-01-30T15:32:22;98551.66;;;1.67;67.39
69780;BME280;57052;55.602;38.096;2023-01-30T15:34:50;98545.88;;;1.75;67.56
69780;BME280;57052;55.602;38.096;2023-01-30T15:42:45;98543.06;;;1.60;67.35
69780;BME280;57052;55.602;38.096;2023-01-30T15:48:05;98557.97;;;1.61;66.19
69780;BME280;57052;55.602;38.096;2023-01-30T15:50:35;98548.94;;;1.62;66.99
69780;BME280;57052;55.602;38.096;2023-01-30T15:53:01;98535.59;;;1.62;67.30
69780;BME280;57052;55.602;38.096;2023-01-30T15:55:32;98531.84;;;1.58;67.09
69780;BME280;57052;55.602;38.096;2023-01-30T15:58:04;98537.50;;;1.66;66.45
69780;BME280;57052;55.602;38.096;2023-01-30T16:00:32;98539.41;;;1.71;66.90
69780;BME280;57052;55.602;38.096;2023-01-30T16:03:01;98527.69;;;1.72;66.94
69780;BME280;57052;55.602;38.096;2023-01-30T16:05:28;98519.16;;;1.70;66.97
69780;BME280;57052;55.602;38.096;2023-01-30T16:07:55;98526.38;;;1.74;66.71